sensor_id;sensor_type;location;lat;lon;timestamp;pressure;altitude;pressure_sealevel;temperature;humidity
12475;BME280;6302;42.624;23.334;2023-01-16T00:01:31;93145.53;;;1.32;100.00
12475;BME280;6302;42.624;23.334;2023-01-16T00:03:58;93151.94;;;1.35;100.00
12475;BME280;6302;42.624;23.334;2023-01-16T00:06:25;93156.06;;;1.36;100.00
12475;BME280;6302;42.624;23.334;2023-01-16T00:08:51;93142.66;;;1.37;100.00
12475;BME280;6302;42.624;23.334;2023-01-16T00:11:20;93145.28;;;1.37;100.00
12475;BME280;6302;42.624;23.334;2023-01-16T00:13:46;93141.47;;;1.35;100.00
12475;BME280;6302;42.624;23.334;2023-01-16T00:16:13;93148.66;;;1.38;100.00
12475;BME280;6302;42.624;23.334;2023-01-16T00:18:40;93142.66;;;1.37;100.00
12475;BME280;6302;42.624;23.334;2023-01-16T00:21:07;93140.47;;;1.39;100.00
12475;BME280;6302;42.624;23.334;2023-01-16T00:23:35;93143.50;;;1.41;100.00
12475;BME280;6302;42.624;23.334;2023-01-16T00:26:04;93142.75;;;1.41;100.00
12475;BME280;6302;42.624;23.334;2023-01-16T00:28:33;93135.00;;;1.44;100.00
12475;BME280;6302;42.624;23.334;2023-01-16T00:31:02;93131.28;;;1.45;100.00
12475;BME280;6302;42.624;23.334;2023-01-16T00:33:29;93115.13;;;1.40;100.00
12475;BME280;6302;42.624;23.334;2023-01-16T00:35:55;93119.31;;;1.44;100.00
12475;BME280;6302;42.624;23.334;2023-01-16T00:38:22;93110.06;;;1.47;100.00
12475;BME280;6302;42.624;23.334;2023-01-16T00:40:49;93113.78;;;1.46;100.00
12475;BME280;6302;42.624;23.334;2023-01-16T00:43:16;93112.25;;;1.45;100.00
12475;BME280;6302;42.624;23.334;2023-01-16T00:45:44;93106.28;;;1.44;100.00
12475;BME280;6302;42.624;23.334;2023-01-16T00:48:11;93102.16;;;1.43;100.00
12475;BME280;6302;42.624;23.334;2023-01-16T00:50:39;93103.25;;;1.42;100.00
12475;BME280;6302;42.624;23.334;2023-01-16T00:53:05;93100.28;;;1.44;100.00
12475;BME280;6302;42.624;23.334;2023-01-16T00:55:33;93098.03;;;1.42;100.00
12475;BME280;6302;42.624;23.334;2023-01-16T00:58:01;93104.31;;;1.41;100.00
12475;BME280;6302;42.624;23.334;2023-01-16T01:00:29;93104.00;;;1.43;100.00
12475;BME280;6302;42.624;23.334;2023-01-16T01:02:58;93105.50;;;1.44;100.00
12475;BME280;6302;42.624;23.334;2023-01-16T01:05:24;93105.50;;;1.44;100.00
12475;BME280;6302;42.624;23.334;2023-01-16T01:07:51;93102.16;;;1.43;100.00
12475;BME280;6302;42.624;23.334;2023-01-16T01:10:18;93102.56;;;1.45;100.00
12475;BME280;6302;42.624;23.334;2023-01-16T01:12:45;93106.38;;;1.48;100.00
12475;BME280;6302;42.624;23.334;2023-01-16T01:15:12;93107.84;;;1.49;100.00
12475;BME280;6302;42.624;23.334;2023-01-16T01:17:38;93100.72;;;1.46;100.00
12475;BME280;6302;42.624;23.334;2023-01-16T01:20:08;93101.81;;;1.45;100.00
12475;BME280;6302;42.624;23.334;2023-01-16T01:22:35;93097.34;;;1.45;100.00
12475;BME280;6302;42.624;23.334;2023-01-16T01:25:02;93099.25;;;1.48;100.00
12475;BME280;6302;42.624;23.334;2023-01-16T01:27:29;93097.41;;;1.49;100.00
12475;BME280;6302;42.624;23.334;2023-01-16T01:29:56;93097.81;;;1.51;100.00
12475;BME280;6302;42.624;23.334;2023-01-16T01:32:22;93086.91;;;1.45;100.00
12475;BME280;6302;42.624;23.334;2023-01-16T01:34:49;93084.72;;;1.47;100.00
12475;BME280;6302;42.624;23.334;2023-01-16T01:37:17;93086.22;;;1.48;100.00
12475;BME280;6302;42.624;23.334;2023-01-16T01:39:44;93075.84;;;1.52;100.00
12475;BME280;6302;42.624;23.334;2023-01-16T01:42:11;93072.06;;;1.49;100.00
12475;BME280;6302;42.624;23.334;2023-01-16T01:45:05;93062.44;;;1.53;100.00
12475;BME280;6302;42.624;23.334;2023-01-16T01:47:34;93058.75;;;1.54;100.00
12475;BME280;6302;42.624;23.334;2023-01-16T01:50:14;93060.34;;;1.59;100.00
12475;BME280;6302;42.624;23.334;2023-01-16T01:52:44;93055.88;;;1.59;100.00
12475;BME280;6302;42.624;23.334;2023-01-16T01:55:12;93051.06;;;1.61;100.00
12475;BME280;6302;42.624;23.334;2023-01-16T01:57:43;93056.69;;;1.63;100.00
12475;BME280;6302;42.624;23.334;2023-01-16T02:00:14;93059.81;;;1.69;100.00
12475;BME280;6302;42.624;23.334;2023-01-16T02:02:45;93058.00;;;1.73;100.00
12475;BME280;6302;42.624;23.334;2023-01-16T02:05:16;93045.03;;;1.76;100.00
12475;BME280;6302;42.624;23.334;2023-01-16T02:07:48;93049.03;;;1.70;100.00
12475;BME280;6302;42.624;23.334;2023-01-16T02:10:29;93053.09;;;1.68;100.00
12475;BME280;6302;42.624;23.334;2023-01-16T02:12:58;93042.56;;;1.64;100.00
12475;BME280;6302;42.624;23.334;2023-01-16T02:15:27;93050.72;;;1.63;100.00
12475;BME280;6302;42.624;23.334;2023-01-16T02:17:53;93048.44;;;1.61;100.00
12475;BME280;6302;42.624;23.334;2023-01-16T02:20:47;93040.88;;;1.56;100.00
12475;BME280;6302;42.624;23.334;2023-01-16T02:26:40;93040.38;;;1.51;100.00
12475;BME280;6302;42.624;23.334;2023-01-16T02:32:39;93028.28;;;1.43;100.00
12475;BME280;6302;42.624;23.334;2023-01-16T02:35:31;93024.91;;;1.42;100.00
12475;BME280;6302;42.624;23.334;2023-01-16T02:38:10;93021.91;;;1.40;100.00
12475;BME280;6302;42.624;23.334;2023-01-16T02:40:45;93021.91;;;1.40;100.00
12475;BME280;6302;42.624;23.334;2023-01-16T02:43:27;93017.09;;;1.42;100.00
12475;BME280;6302;42.624;23.334;2023-01-16T02:46:06;93021.91;;;1.40;100.00
12475;BME280;6302;42.624;23.334;2023-01-16T02:48:41;93014.13;;;1.44;100.00
12475;BME280;6302;42.624;23.334;2023-01-16T02:51:12;93017.50;;;1.44;100.00
12475;BME280;6302;42.624;23.334;2023-01-16T02:53:45;93029.13;;;1.47;100.00
12475;BME280;6302;42.624;23.334;2023-01-16T02:56:20;93030.22;;;1.46;100.00
12475;BME280;6302;42.624;23.334;2023-01-16T02:58:49;93017.59;;;1.48;100.00
12475;BME280;6302;42.624;23.334;2023-01-16T03:01:17;93006.03;;;1.49;100.00
12475;BME280;6302;42.624;23.334;2023-01-16T03:03:49;93001.16;;;1.47;100.00
12475;BME280;6302;42.624;23.334;2023-01-16T03:06:27;93007.88;;;1.48;100.00
12475;BME280;6302;42.624;23.334;2023-01-16T03:09:06;92998.13;;;1.45;100.00
12475;BME280;6302;42.624;23.334;2023-01-16T03:11:37;93001.84;;;1.44;100.00
12475;BME280;6302;42.624;23.334;2023-01-16T03:14:16;92999.47;;;1.39;100.00
12475;BME280;6302;42.624;23.334;2023-01-16T03:16:52;93008.09;;;1.40;100.00
12475;BME280;6302;42.624;23.334;2023-01-16T03:19:29;92994.63;;;1.38;100.00
12475;BME280;6302;42.624;23.334;2023-01-16T03:22:07;92988.38;;;1.42;100.00
12475;BME280;6302;42.624;23.334;2023-01-16T03:24:45;92979.38;;;1.40;100.00
12475;BME280;6302;42.624;23.334;2023-01-16T03:27:26;92972.97;;;1.37;100.00
12475;BME280;6302;42.624;23.334;2023-01-16T03:30:01;92971.03;;;1.34;100.00
12475;BME280;6302;42.624;23.334;2023-01-16T03:32:35;92966.84;;;1.29;100.00
12475;BME280;6302;42.624;23.334;2023-01-16T03:35:10;92969.81;;;1.28;100.00
12475;BME280;6302;42.624;23.334;2023-01-16T03:37:45;92970.47;;;1.25;100.00
12475;BME280;6302;42.624;23.334;2023-01-16T03:40:17;92970.81;;;1.23;100.00
12475;BME280;6302;42.624;23.334;2023-01-16T03:42:49;92953.28;;;1.24;100.00
12475;BME280;6302;42.624;23.334;2023-01-16T03:45:21;92949.25;;;1.26;100.00
12475;BME280;6302;42.624;23.334;2023-01-16T03:47:52;92944.69;;;1.23;100.00
12475;BME280;6302;42.624;23.334;2023-01-16T03:50:26;92932.53;;;1.12;100.00
12475;BME280;6302;42.624;23.334;2023-01-16T03:53:01;92942.44;;;1.22;100.00
12475;BME280;6302;42.624;23.334;2023-01-16T03:55:31;92938.59;;;1.16;100.00
12475;BME280;6302;42.624;23.334;2023-01-16T03:58:03;92938.16;;;1.14;100.00
12475;BME280;6302;42.624;23.334;2023-01-16T04:00:38;92927.31;;;1.12;100.00
12475;BME280;6302;42.624;23.334;2023-01-16T04:03:10;92928.00;;;1.09;100.00
12475;BME280;6302;42.624;23.334;2023-01-16T04:05:47;92922.78;;;1.09;100.00
12475;BME280;6302;42.624;23.334;2023-01-16T04:08:20;92916.59;;;0.98;100.00
12475;BME280;6302;42.624;23.334;2023-01-16T04:10:50;92931.56;;;1.01;100.00
12475;BME280;6302;42.624;23.334;2023-01-16T04:13:21;92930.47;;;1.02;100.00
12475;BME280;6302;42.624;23.334;2023-01-16T04:15:52;92930.47;;;1.02;100.00
12475;BME280;6302;42.624;23.334;2023-01-16T04:18:22;92927.03;;;0.98;100.00
12475;BME280;6302;42.624;23.334;2023-01-16T04:20:52;92925.59;;;1.00;100.00
12475;BME280;6302;42.624;23.334;2023-01-16T04:23:19;92920.03;;;1.02;100.00
12475;BME280;6302;42.624;23.334;2023-01-16T04:25:46;92919.19;;;0.98;100.00
12475;BME280;6302;42.624;23.334;2023-01-16T04:28:12;92929.22;;;0.96;100.00
12475;BME280;6302;42.624;23.334;2023-01-16T04:30:39;92925.09;;;0.95;100.00
12475;BME280;6302;42.624;23.334;2023-01-16T04:33:07;92925.34;;;0.90;100.00
12475;BME280;6302;42.624;23.334;2023-01-16T04:35:34;92920.53;;;0.92;100.00
12475;BME280;6302;42.624;23.334;2023-01-16T04:38:02;92923.16;;;0.92;100.00
12475;BME280;6302;42.624;23.334;2023-01-16T04:40:29;92907.50;;;0.92;100.00
12475;BME280;6302;42.624;23.334;2023-01-16T04:42:56;92907.09;;;0.90;100.00
12475;BME280;6302;42.624;23.334;2023-01-16T04:45:23;92905.66;;;0.92;100.00
12475;BME280;6302;42.624;23.334;2023-01-16T04:47:50;92903.06;;;0.92;100.00
12475;BME280;6302;42.624;23.334;2023-01-16T04:50:18;92909.03;;;0.93;100.00
12475;BME280;6302;42.624;23.334;2023-01-16T04:52:45;92914.25;;;0.93;100.00
12475;BME280;6302;42.624;23.334;2023-01-16T04:55:14;92912.66;;;0.88;100.00
12475;BME280;6302;42.624;23.334;2023-01-16T04:57:41;92900.78;;;0.91;100.00
12475;BME280;6302;42.624;23.334;2023-01-16T05:00:10;92903.00;;;0.89;100.00
12475;BME280;6302;42.624;23.334;2023-01-16T05:02:38;92906.69;;;0.88;100.00
12475;BME280;6302;42.624;23.334;2023-01-16T05:05:06;92900.66;;;0.84;100.00
12475;BME280;6302;42.624;23.334;2023-01-16T05:07:32;92907.03;;;0.86;100.00
12475;BME280;6302;42.624;23.334;2023-01-16T05:09:59;92900.69;;;0.87;100.00
12475;BME280;6302;42.624;23.334;2023-01-16T05:12:27;92903.66;;;0.86;100.00
12475;BME280;6302;42.624;23.334;2023-01-16T05:14:54;92904.34;;;0.83;100.00
12475;BME280;6302;42.624;23.334;2023-01-16T05:17:21;92894.56;;;0.80;100.00
12475;BME280;6302;42.624;23.334;2023-01-16T05:19:50;92890.88;;;0.81;100.00
12475;BME280;6302;42.624;23.334;2023-01-16T05:22:17;92886.44;;;0.81;100.00
12475;BME280;6302;42.624;23.334;2023-01-16T05:24:44;92887.16;;;0.82;100.00
12475;BME280;6302;42.624;23.334;2023-01-16T05:27:11;92881.22;;;0.81;100.00
12475;BME280;6302;42.624;23.334;2023-01-16T05:29:39;92883.72;;;0.78;100.00
12475;BME280;6302;42.624;23.334;2023-01-16T05:32:06;92883.38;;;0.79;100.00
12475;BME280;6302;42.624;23.334;2023-01-16T05:34:32;92876.72;;;0.82;100.00
12475;BME280;6302;42.624;23.334;2023-01-16T05:36:59;92873.03;;;0.83;100.00
12475;BME280;6302;42.624;23.334;2023-01-16T05:39:26;92873.03;;;0.83;100.00
12475;BME280;6302;42.624;23.334;2023-01-16T05:41:53;92867.81;;;0.83;100.00
12475;BME280;6302;42.624;23.334;2023-01-16T05:44:19;92870.78;;;0.81;100.00
12475;BME280;6302;42.624;23.334;2023-01-16T05:46:48;92869.34;;;0.84;100.00
12475;BME280;6302;42.624;23.334;2023-01-16T05:49:16;92867.91;;;0.86;100.00
12475;BME280;6302;42.624;23.334;2023-01-16T05:51:43;92872.41;;;0.89;100.00
12475;BME280;6302;42.624;23.334;2023-01-16T05:54:10;92877.63;;;0.89;100.00
12475;BME280;6302;42.624;23.334;2023-01-16T05:56:38;92880.75;;;0.95;100.00
12475;BME280;6302;42.624;23.334;2023-01-16T05:59:04;92879.25;;;0.94;100.00
12475;BME280;6302;42.624;23.334;2023-01-16T06:01:31;92876.19;;;0.92;100.00
12475;BME280;6302;42.624;23.334;2023-01-16T06:03:59;92863.44;;;0.87;100.00
12475;BME280;6302;42.624;23.334;2023-01-16T06:06:26;92870.97;;;0.92;100.00
12475;BME280;6302;42.624;23.334;2023-01-16T06:08:53;92870.97;;;0.92;100.00
12475;BME280;6302;42.624;23.334;2023-01-16T06:11:19;92863.59;;;0.94;100.00
12475;BME280;6302;42.624;23.334;2023-01-16T06:13:46;92856.84;;;0.93;100.00
12475;BME280;6302;42.624;23.334;2023-01-16T06:16:14;92850.56;;;0.94;100.00
12475;BME280;6302;42.624;23.334;2023-01-16T06:18:40;92849.84;;;0.97;100.00
12475;BME280;6302;42.624;23.334;2023-01-16T06:21:08;92849.16;;;1.00;100.00
12475;BME280;6302;42.624;23.334;2023-01-16T06:23:35;92850.25;;;0.99;100.00
12475;BME280;6302;42.624;23.334;2023-01-16T06:26:02;92860.84;;;1.06;100.00
12475;BME280;6302;42.624;23.334;2023-01-16T06:28:31;92861.69;;;1.10;100.00
12475;BME280;6302;42.624;23.334;2023-01-16T06:30:57;92868.81;;;1.13;100.00
12475;BME280;6302;42.624;23.334;2023-01-16T06:33:24;92865.94;;;1.18;100.00
12475;BME280;6302;42.624;23.334;2023-01-16T06:35:51;92867.16;;;1.24;100.00
12475;BME280;6302;42.624;23.334;2023-01-16T06:38:22;92868.00;;;1.28;100.00
12475;BME280;6302;42.624;23.334;2023-01-16T06:40:49;92880.84;;;1.37;100.00
12475;BME280;6302;42.624;23.334;2023-01-16T06:43:21;92876.09;;;1.42;100.00
12475;BME280;6302;42.624;23.334;2023-01-16T06:45:48;92875.06;;;1.47;100.00
12475;BME280;6302;42.624;23.334;2023-01-16T06:48:15;92876.72;;;1.55;100.00
12475;BME280;6302;42.624;23.334;2023-01-16T06:50:42;92867.84;;;1.59;100.00
12475;BME280;6302;42.624;23.334;2023-01-16T06:53:08;92854.50;;;1.64;100.00
12475;BME280;6302;42.624;23.334;2023-01-16T06:55:37;92835.66;;;1.74;100.00
12475;BME280;6302;42.624;23.334;2023-01-16T06:58:03;92839.91;;;1.82;100.00
12475;BME280;6302;42.624;23.334;2023-01-16T07:00:30;92861.41;;;1.76;100.00
12475;BME280;6302;42.624;23.334;2023-01-16T07:02:58;92859.94;;;1.75;100.00
12475;BME280;6302;42.624;23.334;2023-01-16T07:05:26;92868.28;;;1.84;100.00
12475;BME280;6302;42.624;23.334;2023-01-16T07:07:53;92869.34;;;2.02;100.00
12475;BME280;6302;42.624;23.334;2023-01-16T07:10:21;92866.16;;;2.12;100.00
12475;BME280;6302;42.624;23.334;2023-01-16T07:12:50;92857.75;;;2.00;100.00
12475;BME280;6302;42.624;23.334;2023-01-16T07:15:17;92860.25;;;1.73;100.00
12475;BME280;6302;42.624;23.334;2023-01-16T07:18:02;92856.44;;;1.67;100.00
12475;BME280;6302;42.624;23.334;2023-01-16T07:20:50;92854.31;;;1.54;100.00
12475;BME280;6302;42.624;23.334;2023-01-16T07:23:37;92857.13;;;1.64;100.00
12475;BME280;6302;42.624;23.334;2023-01-16T07:26:05;92862.25;;;1.80;100.00
12475;BME280;6302;42.624;23.334;2023-01-16T07:28:35;92849.34;;;1.90;100.00
12475;BME280;6302;42.624;23.334;2023-01-16T07:31:02;92846.56;;;2.03;100.00
12475;BME280;6302;42.624;23.334;2023-01-16T07:33:31;92845.94;;;2.09;100.00
12475;BME280;6302;42.624;23.334;2023-01-16T07:35:58;92846.06;;;2.16;100.00
12475;BME280;6302;42.624;23.334;2023-01-16T07:38:24;92847.25;;;2.22;100.00
12475;BME280;6302;42.624;23.334;2023-01-16T07:40:51;92833.09;;;2.23;100.00
12475;BME280;6302;42.624;23.334;2023-01-16T07:43:18;92832.88;;;2.32;100.00
12475;BME280;6302;42.624;23.334;2023-01-16T07:45:46;92822.13;;;2.37;100.00
12475;BME280;6302;42.624;23.334;2023-01-16T07:48:17;92822.91;;;2.41;100.00
12475;BME280;6302;42.624;23.334;2023-01-16T07:50:49;92819.94;;;2.42;100.00
12475;BME280;6302;42.624;23.334;2023-01-16T07:53:16;92813.84;;;2.35;100.00
12475;BME280;6302;42.624;23.334;2023-01-16T07:55:47;92810.03;;;2.29;100.00
12475;BME280;6302;42.624;23.334;2023-01-16T07:58:14;92812.84;;;2.17;100.00
12475;BME280;6302;42.624;23.334;2023-01-16T08:00:41;92822.31;;;2.02;100.00
12475;BME280;6302;42.624;23.334;2023-01-16T08:03:09;92800.66;;;2.02;100.00
12475;BME280;6302;42.624;23.334;2023-01-16T08:05:36;92792.22;;;2.12;100.00
12475;BME280;6302;42.624;23.334;2023-01-16T08:08:04;92802.88;;;2.26;100.00
12475;BME280;6302;42.624;23.334;2023-01-16T08:10:33;92790.88;;;2.47;100.00
12475;BME280;6302;42.624;23.334;2023-01-16T08:13:01;92779.66;;;2.47;100.00
12475;BME280;6302;42.624;23.334;2023-01-16T08:15:27;92789.78;;;2.48;100.00
12475;BME280;6302;42.624;23.334;2023-01-16T08:17:54;92795.59;;;2.64;100.00
12475;BME280;6302;42.624;23.334;2023-01-16T08:20:23;92810.38;;;2.53;100.00
12475;BME280;6302;42.624;23.334;2023-01-16T08:22:51;92829.66;;;2.42;100.00
12475;BME280;6302;42.624;23.334;2023-01-16T08:25:20;92815.81;;;2.41;100.00
12475;BME280;6302;42.624;23.334;2023-01-16T08:27:47;92817.88;;;2.29;100.00
12475;BME280;6302;42.624;23.334;2023-01-16T08:30:15;92829.44;;;2.28;100.00
12475;BME280;6302;42.624;23.334;2023-01-16T08:32:42;92809.47;;;2.16;100.00
12475;BME280;6302;42.624;23.334;2023-01-16T08:35:10;92813.41;;;2.29;100.00
12475;BME280;6302;42.624;23.334;2023-01-16T08:37:38;92804.91;;;2.36;100.00
12475;BME280;6302;42.624;23.334;2023-01-16T08:40:05;92787.91;;;2.49;100.00
12475;BME280;6302;42.624;23.334;2023-01-16T08:42:33;92804.66;;;2.71;100.00
12475;BME280;6302;42.624;23.334;2023-01-16T08:45:17;92792.19;;;2.90;100.00
12475;BME280;6302;42.624;23.334;2023-01-16T08:48:01;92781.16;;;3.07;100.00
12475;BME280;6302;42.624;23.334;2023-01-16T08:50:46;92778.25;;;3.12;100.00
12475;BME280;6302;42.624;23.334;2023-01-16T08:53:32;92776.47;;;3.23;100.00
12475;BME280;6302;42.624;23.334;2023-01-16T08:55:59;92782.22;;;3.36;100.00
12475;BME280;6302;42.624;23.334;2023-01-16T08:58:26;92784.25;;;3.50;100.00
12475;BME280;6302;42.624;23.334;2023-01-16T09:00:53;92780.28;;;3.63;100.00
12475;BME280;6302;42.624;23.334;2023-01-16T09:03:20;92776.59;;;3.71;100.00
12475;BME280;6302;42.624;23.334;2023-01-16T09:05:46;92780.72;;;3.72;100.00
12475;BME280;6302;42.624;23.334;2023-01-16T09:08:13;92775.06;;;3.66;100.00
12475;BME280;6302;42.624;23.334;2023-01-16T09:10:41;92771.28;;;3.64;100.00
12475;BME280;6302;42.624;23.334;2023-01-16T09:13:28;92765.25;;;3.60;100.00
12475;BME280;6302;42.624;23.334;2023-01-16T09:16:12;92765.91;;;3.50;100.00
12475;BME280;6302;42.624;23.334;2023-01-16T09:18:40;92763.78;;;3.62;100.00
12475;BME280;6302;42.624;23.334;2023-01-16T09:21:07;92772.91;;;3.79;100.00
12475;BME280;6302;42.624;23.334;2023-01-16T09:23:34;92758.44;;;3.92;100.00
12475;BME280;6302;42.624;23.334;2023-01-16T09:26:02;92748.78;;;4.03;100.00
12475;BME280;6302;42.624;23.334;2023-01-16T09:28:29;92747.94;;;3.92;100.00
12475;BME280;6302;42.624;23.334;2023-01-16T09:30:55;92749.06;;;3.91;100.00
12475;BME280;6302;42.624;23.334;2023-01-16T09:33:22;92736.78;;;4.02;100.00
12475;BME280;6302;42.624;23.334;2023-01-16T09:35:49;92734.09;;;3.95;100.00
12475;BME280;6302;42.624;23.334;2023-01-16T09:38:16;92728.13;;;3.98;100.00
12475;BME280;6302;42.624;23.334;2023-01-16T09:40:43;92739.81;;;4.04;100.00
12475;BME280;6302;42.624;23.334;2023-01-16T09:43:33;92724.16;;;4.15;100.00
12475;BME280;6302;42.624;23.334;2023-01-16T09:46:08;92731.97;;;4.11;100.00
12475;BME280;6302;42.624;23.334;2023-01-16T09:48:40;92722.22;;;4.08;100.00
12475;BME280;6302;42.624;23.334;2023-01-16T09:51:13;92714.44;;;4.22;100.00
12475;BME280;6302;42.624;23.334;2023-01-16T09:53:49;92710.66;;;4.16;100.00
12475;BME280;6302;42.624;23.334;2023-01-16T09:56:37;92701.72;;;4.24;100.00
12475;BME280;6302;42.624;23.334;2023-01-16T09:59:28;92713.72;;;4.25;100.00
12475;BME280;6302;42.624;23.334;2023-01-16T10:02:03;92693.91;;;4.31;100.00
12475;BME280;6302;42.624;23.334;2023-01-16T10:04:32;92703.16;;;4.11;100.00
12475;BME280;6302;42.624;23.334;2023-01-16T10:07:21;92690.00;;;4.04;100.00
12475;BME280;6302;42.624;23.334;2023-01-16T10:09:59;92709.22;;;4.26;100.00
12475;BME280;6302;42.624;23.334;2023-01-16T10:12:32;92690.09;;;4.25;100.00
12475;BME280;6302;42.624;23.334;2023-01-16T10:15:14;92683.06;;;4.36;100.00
12475;BME280;6302;42.624;23.334;2023-01-16T10:17:54;92689.09;;;4.44;100.00
12475;BME280;6302;42.624;23.334;2023-01-16T10:20:43;92676.41;;;4.56;100.00
12475;BME280;6302;42.624;23.334;2023-01-16T10:23:25;92652.47;;;4.69;100.00
12475;BME280;6302;42.624;23.334;2023-01-16T10:26:01;92678.38;;;4.74;100.00
12475;BME280;6302;42.624;23.334;2023-01-16T10:28:44;92653.63;;;4.71;100.00
12475;BME280;6302;42.624;23.334;2023-01-16T10:31:18;92657.34;;;4.67;100.00
12475;BME280;6302;42.624;23.334;2023-01-16T10:33:50;92639.78;;;4.81;100.00
12475;BME280;6302;42.624;23.334;2023-01-16T10:36:23;92645.75;;;4.82;100.00
12475;BME280;6302;42.624;23.334;2023-01-16T10:38:54;92634.91;;;4.87;100.00
12475;BME280;6302;42.624;23.334;2023-01-16T10:41:25;92632.69;;;4.96;100.00
12475;BME280;6302;42.624;23.334;2023-01-16T10:44:27;92630.41;;;4.91;100.00
12475;BME280;6302;42.624;23.334;2023-01-16T10:47:16;92619.94;;;5.05;100.00
12475;BME280;6302;42.624;23.334;2023-01-16T10:50:01;92620.72;;;5.16;100.00
12475;BME280;6302;42.624;23.334;2023-01-16T10:52:29;92616.97;;;5.31;100.00
12475;BME280;6302;42.624;23.334;2023-01-16T10:54:57;92602.72;;;5.18;100.00
12475;BME280;6302;42.624;23.334;2023-01-16T10:57:25;92615.44;;;5.05;100.00
12475;BME280;6302;42.624;23.334;2023-01-16T10:59:56;92583.19;;;5.26;100.00
12475;BME280;6302;42.624;23.334;2023-01-16T11:02:29;92589.94;;;5.27;100.00
12475;BME280;6302;42.624;23.334;2023-01-16T11:04:56;92580.19;;;5.31;100.00
12475;BME280;6302;42.624;23.334;2023-01-16T11:07:27;92564.03;;;5.47;100.00
12475;BME280;6302;42.624;23.334;2023-01-16T11:09:54;92566.28;;;5.66;100.00
12475;BME280;6302;42.624;23.334;2023-01-16T11:12:25;92566.66;;;5.64;100.00
12475;BME280;6302;42.624;23.334;2023-01-16T11:15:15;92573.78;;;5.67;100.00
12475;BME280;6302;42.624;23.334;2023-01-16T11:18:02;92560.66;;;5.67;100.00
12475;BME280;6302;42.624;23.334;2023-01-16T11:20:46;92553.88;;;5.77;100.00
12475;BME280;6302;42.624;23.334;2023-01-16T11:23:19;92560.63;;;5.78;100.00
12475;BME280;6302;42.624;23.334;2023-01-16T11:25:48;92553.88;;;5.87;100.00
12475;BME280;6302;42.624;23.334;2023-01-16T11:28:20;92545.59;;;6.00;100.00
12475;BME280;6302;42.624;23.334;2023-01-16T11:30:48;92556.81;;;6.14;100.00
12475;BME280;6302;42.624;23.334;2023-01-16T11:33:20;92532.78;;;6.09;100.00
12475;BME280;6302;42.624;23.334;2023-01-16T11:35:52;92557.25;;;5.92;100.00
12475;BME280;6302;42.624;23.334;2023-01-16T11:38:21;92546.34;;;5.97;100.00
12475;BME280;6302;42.624;23.334;2023-01-16T11:40:50;92550.06;;;6.03;100.00
12475;BME280;6302;42.624;23.334;2023-01-16T11:43:21;92551.56;;;6.14;100.00
12475;BME280;6302;42.624;23.334;2023-01-16T11:46:19;92528.97;;;6.24;100.00
12475;BME280;6302;42.624;23.334;2023-01-16T11:48:53;92549.97;;;6.31;100.00
12475;BME280;6302;42.624;23.334;2023-01-16T11:51:24;92504.50;;;6.30;100.00
12475;BME280;6302;42.624;23.334;2023-01-16T11:53:54;92519.91;;;6.25;100.00
12475;BME280;6302;42.624;23.334;2023-01-16T11:56:41;92511.66;;;6.26;100.00
12475;BME280;6302;42.624;23.334;2023-01-16T11:59:23;92508.63;;;6.28;100.00
12475;BME280;6302;42.624;23.334;2023-01-16T12:01:58;92497.41;;;6.24;100.00
12475;BME280;6302;42.624;23.334;2023-01-16T12:04:50;92505.50;;;6.54;100.00
12475;BME280;6302;42.624;23.334;2023-01-16T12:07:46;92500.31;;;6.40;100.00
12475;BME280;6302;42.624;23.334;2023-01-16T12:10:37;92498.03;;;6.49;100.00
12475;BME280;6302;42.624;23.334;2023-01-16T12:13:09;92493.78;;;6.62;100.00
12475;BME280;6302;42.624;23.334;2023-01-16T12:16:06;92497.97;;;6.56;100.00
12475;BME280;6302;42.624;23.334;2023-01-16T12:18:43;92485.88;;;6.62;100.00
12475;BME280;6302;42.624;23.334;2023-01-16T12:21:26;92493.47;;;6.53;100.00
12475;BME280;6302;42.624;23.334;2023-01-16T12:24:09;92476.63;;;6.43;100.00
12475;BME280;6302;42.624;23.334;2023-01-16T12:26:47;92464.88;;;6.55;100.00
12475;BME280;6302;42.624;23.334;2023-01-16T12:29:25;92467.16;;;6.57;100.00
12475;BME280;6302;42.624;23.334;2023-01-16T12:32:17;92455.56;;;6.43;100.00
12475;BME280;6302;42.624;23.334;2023-01-16T12:35:10;92450.31;;;6.43;100.00
12475;BME280;6302;42.624;23.334;2023-01-16T12:38:08;92441.56;;;6.57;100.00
12475;BME280;6302;42.624;23.334;2023-01-16T12:41:02;92448.72;;;6.57;100.00
12475;BME280;6302;42.624;23.334;2023-01-16T12:44:00;92445.03;;;6.40;100.00
12475;BME280;6302;42.624;23.334;2023-01-16T12:46:38;92429.34;;;6.26;100.00
12475;BME280;6302;42.624;23.334;2023-01-16T12:49:21;92439.16;;;6.15;100.00
12475;BME280;6302;42.624;23.334;2023-01-16T12:52:00;92432.94;;;5.87;100.00
12475;BME280;6302;42.624;23.334;2023-01-16T12:54:54;92430.75;;;5.61;100.00
12475;BME280;6302;42.624;23.334;2023-01-16T12:57:39;92435.63;;;5.59;100.00
12475;BME280;6302;42.624;23.334;2023-01-16T13:00:12;92424.75;;;5.54;100.00
12475;BME280;6302;42.624;23.334;2023-01-16T13:02:47;92418.03;;;5.49;100.00
12475;BME280;6302;42.624;23.334;2023-01-16T13:05:21;92410.13;;;5.60;100.00
12475;BME280;6302;42.624;23.334;2023-01-16T13:07:52;92409.75;;;5.54;100.00
12475;BME280;6302;42.624;23.334;2023-01-16T13:10:27;92396.97;;;5.60;100.00
12475;BME280;6302;42.624;23.334;2023-01-16T13:13:15;92403.75;;;5.43;100.00
12475;BME280;6302;42.624;23.334;2023-01-16T13:15:54;92399.25;;;5.58;100.00
12475;BME280;6302;42.624;23.334;2023-01-16T13:18:26;92374.88;;;5.50;100.00
12475;BME280;6302;42.624;23.334;2023-01-16T13:20:57;92374.50;;;5.45;100.00
12475;BME280;6302;42.624;23.334;2023-01-16T13:23:26;92379.00;;;5.44;100.00
12475;BME280;6302;42.624;23.334;2023-01-16T13:25:59;92363.19;;;5.58;100.00
12475;BME280;6302;42.624;23.334;2023-01-16T13:28:37;92347.41;;;5.58;100.00
12475;BME280;6302;42.624;23.334;2023-01-16T13:31:22;92363.88;;;5.66;100.00
12475;BME280;6302;42.624;23.334;2023-01-16T13:33:55;92362.34;;;5.79;100.00